Terminal Aerodrome Forecast
Issued by NWS Wilmington, OH

Home | Current Version | Previous Version | Text Only | Print | Product List | Glossary On
Versions: 1 2 3 4 5 6 7 8 9 10 11 12 13 14 15 16 17 18 19 20 21 22 23
000
FTUS41 KILN 021507 AAA
TAFCVG
TAF AMD
KCVG 021507Z 0215/0318 25005KT P6SM FEW250
     FM030000 21005KT P6SM SCT200
     FM031400 25010KT P6SM VCSH BKN050=

USA.gov is the U.S. government's official web portal to all federal, state and local government web resources and services.